Time;durP1;ratioP1;P1;durP2;ratioP2;P2;SDS_P1;SDS_P2;PMS_P1;PMS_P2;Temp;Humidity;BMP_temperature;BMP_pressure;BME280_temperature;BME280_humidity;BME280_pressure;Samples;Min_cycle;Max_cycle;Signal;HPM_P1;HPM_P2
2022/06/01 00:01:48;;;;;;;12.98;5.25;;;22.40;86.50;;;;;;6220600;23;20067;-87
2022/06/01 00:04:15;;;;;;;8.40;5.15;;;22.30;86.80;;;;;;6246258;23;20011;-84
2022/06/01 00:06:41;;;;;;;9.35;4.57;;;22.20;86.90;;;;;;6246324;23;20000;-84
2022/06/01 00:09:07;;;;;;;6.07;4.47;;;22.20;87.00;;;;;;6247285;23;20046;-83
2022/06/01 00:11:33;;;;;;;5.82;4.50;;;22.20;86.60;;;;;;6246426;23;20008;-83
2022/06/01 00:13:59;;;;;;;5.75;3.80;;;22.30;86.50;;;;;;6246411;23;19997;-82
2022/06/01 00:16:24;;;;;;;6.22;4.00;;;22.30;85.70;;;;;;6245984;23;19997;-83
2022/06/01 00:18:50;;;;;;;7.57;5.07;;;22.40;85.50;;;;;;6246836;23;20076;-84
2022/06/01 00:21:16;;;;;;;9.55;5.72;;;22.20;86.70;;;;;;6218987;23;20007;-84
2022/06/01 00:23:42;;;;;;;6.38;4.72;;;22.20;86.90;;;;;;6245820;23;20001;-83
2022/06/01 00:26:08;;;;;;;7.07;4.30;;;22.30;86.20;;;;;;6245658;23;20010;-84
2022/06/01 00:28:34;;;;;;;9.10;6.20;;;22.30;85.80;;;;;;6247006;23;20418;-83
2022/06/01 00:31:00;;;;;;;6.15;4.50;;;22.30;86.40;;;;;;6246729;23;20307;-88
2022/06/01 00:33:26;;;;;;;8.35;6.57;;;22.30;86.00;;;;;;6246625;23;20023;-86
2022/06/01 00:35:53;;;;;;;6.25;4.63;;;22.30;86.50;;;;;;6219914;23;20069;-85
2022/06/01 00:38:19;;;;;;;4.45;3.95;;;22.30;86.30;;;;;;6218974;23;20001;-87
2022/06/01 00:40:44;;;;;;;9.98;6.97;;;22.30;86.00;;;;;;6219084;23;20014;-87
2022/06/01 00:43:19;;;;;;;7.60;4.57;;;22.30;86.50;;;;;;6244885;23;20040;-87
2022/06/01 00:45:44;;;;;;;9.50;6.20;;;22.30;86.10;;;;;;6245896;23;20458;-87
2022/06/01 00:48:10;;;;;;;8.20;5.30;;;22.30;86.40;;;;;;6245983;23;20038;-85
2022/06/01 00:50:42;;;;;;;8.90;6.35;;;22.30;86.30;;;;;;6245642;23;20489;-85
2022/06/01 00:53:15;;;;;;;7.20;5.07;;;22.30;86.10;;;;;;6244568;23;20441;-85
2022/06/01 00:55:53;;;;;;;6.28;5.60;;;22.30;85.80;;;;;;6245489;23;20481;-84
2022/06/01 00:58:24;;;;;;;9.07;5.03;;;22.30;85.60;;;;;;6218145;23;20028;-84
2022/06/01 01:00:52;;;;;;;6.65;5.30;;;22.40;85.30;;;;;;6246766;23;20000;-85
2022/06/01 01:03:19;;;;;;;5.30;4.72;;;22.40;85.20;;;;;;6246480;23;20071;-85
2022/06/01 01:05:51;;;;;;;6.78;4.95;;;22.50;85.10;;;;;;6246192;23;20076;-84
2022/06/01 01:08:17;;;;;;;5.53;4.82;;;22.50;85.00;;;;;;6218841;23;20012;-82
2022/06/01 01:10:43;;;;;;;6.82;4.60;;;22.50;84.90;;;;;;6245443;23;20008;-82
2022/06/01 01:13:14;;;;;;;6.93;5.20;;;22.60;85.00;;;;;;6244828;23;20046;-83
2022/06/01 01:15:51;;;;;;;5.80;4.80;;;22.60;84.80;;;;;;6217767;23;20001;-83
2022/06/01 01:18:21;;;;;;;8.82;5.18;;;22.60;84.80;;;;;;6244897;23;20003;-83
2022/06/01 01:20:58;;;;;;;8.20;5.70;;;22.60;85.00;;;;;;6245807;23;20000;-84
2022/06/01 01:23:38;;;;;;;7.22;4.88;;;22.60;85.00;;;;;;6244963;23;20004;-81
2022/06/01 01:26:06;;;;;;;7.57;5.40;;;22.60;84.90;;;;;;6244690;23;20035;-81
2022/06/01 01:28:33;;;;;;;6.78;5.57;;;22.60;84.90;;;;;;6245098;23;20004;-83
2022/06/01 01:31:05;;;;;;;9.07;5.22;;;22.60;84.90;;;;;;6245380;23;20433;-82
2022/06/01 01:33:31;;;;;;;7.50;5.10;;;22.60;84.80;;;;;;6245361;23;20781;-83
2022/06/01 01:36:04;;;;;;;5.55;5.05;;;22.60;84.70;;;;;;6245399;23;20004;-83
2022/06/01 01:38:36;;;;;;;6.53;5.00;;;22.60;84.70;;;;;;6245902;23;20001;-84
2022/06/01 01:41:07;;;;;;;10.02;5.85;;;22.60;84.80;;;;;;6244978;23;20012;-85
2022/06/01 01:43:36;;;;;;;7.82;5.70;;;22.60;84.80;;;;;;6245102;23;20011;-83
2022/06/01 01:46:02;;;;;;;11.05;5.40;;;22.60;84.90;;;;;;6218462;23;20008;-83
2022/06/01 01:48:28;;;;;;;6.68;5.70;;;22.50;84.90;;;;;;6245884;23;20004;-83
2022/06/01 01:50:54;;;;;;;6.75;5.47;;;22.50;84.90;;;;;;6244264;23;20004;-83
2022/06/01 01:53:20;;;;;;;7.93;5.60;;;22.50;84.90;;;;;;6244840;23;20007;-84
2022/06/01 01:56:12;;;;;;;7.63;5.80;;;22.50;85.00;;;;;;6244960;23;20003;-85
2022/06/01 01:59:14;;;;;;;6.93;5.88;;;22.50;85.10;;;;;;6245199;23;20000;-83
2022/06/01 02:01:49;;;;;;;9.35;6.45;;;22.50;85.20;;;;;;6245383;23;20011;-84
2022/06/01 02:07:19;;;;;;;7.00;5.43;;;22.40;85.10;;;;;;6245475;23;20015;-85
2022/06/01 02:12:41;;;;;;;7.82;5.40;;;22.40;85.20;;;;;;6245125;23;20074;-84
2022/06/01 02:15:29;;;;;;;8.57;5.65;;;22.40;85.50;;;;;;6217491;23;20453;-83
2022/06/01 02:17:59;;;;;;;8.13;6.13;;;22.40;85.50;;;;;;6244451;23;20027;-84
2022/06/01 02:20:25;;;;;;;;;;;22.40;85.60;;;;;;6245720;23;20378;-84
2022/06/01 02:22:51;;;;;;;8.82;5.85;;;22.40;85.90;;;;;;6245681;23;19900;-83
2022/06/01 02:25:17;;;;;;;7.93;6.05;;;22.30;85.70;;;;;;6244885;23;20436;-83
2022/06/01 02:27:44;;;;;;;9.45;6.28;;;22.40;85.70;;;;;;6245334;23;20000;-84
2022/06/01 02:30:18;;;;;;;7.07;5.90;;;22.30;85.80;;;;;;6244628;23;20004;-83
2022/06/01 02:32:46;;;;;;;8.10;6.13;;;22.30;85.80;;;;;;6245025;23;20004;-84
2022/06/01 02:35:13;;;;;;;8.75;6.20;;;22.30;85.90;;;;;;6244080;23;20000;-85
2022/06/01 02:37:44;;;;;;;6.95;6.00;;;22.40;86.10;;;;;;6245539;23;20075;-84
2022/06/01 02:40:13;;;;;;;;;;;22.30;86.10;;;;;;6245817;23;20008;-83
2022/06/01 02:42:47;;;;;;;8.23;6.18;;;22.30;86.30;;;;;;6244861;23;19907;-82
2022/06/01 02:45:13;;;;;;;8.60;6.07;;;22.30;86.30;;;;;;6243800;23;20004;-82
2022/06/01 02:47:42;;;;;;;8.10;5.93;;;22.30;86.20;;;;;;6245426;23;20081;-82
2022/06/01 02:50:12;;;;;;;7.75;5.65;;;22.30;86.20;;;;;;6245467;23;20086;-83
2022/06/01 02:52:38;;;;;;;11.27;6.55;;;22.30;86.40;;;;;;6244926;23;19996;-83
2022/06/01 02:55:05;;;;;;;9.80;6.10;;;22.30;87.00;;;;;;6244558;23;20000;-83
2022/06/01 02:57:32;;;;;;;8.15;5.85;;;22.30;86.50;;;;;;6244909;23;20289;-82
2022/06/01 02:59:58;;;;;;;9.43;5.80;;;22.30;86.60;;;;;;6245288;23;20431;-81
2022/06/01 03:02:25;;;;;;;8.38;6.50;;;22.30;86.70;;;;;;6243920;23;20000;-82
2022/06/01 03:04:52;;;;;;;8.88;6.45;;;22.30;86.80;;;;;;6218258;23;20334;-83
2022/06/01 03:07:18;;;;;;;10.07;7.05;;;22.40;87.00;;;;;;6244898;23;20000;-83
2022/06/01 03:09:44;;;;;;;9.00;6.28;;;22.30;87.20;;;;;;6245353;23;20058;-83
2022/06/01 03:12:10;;;;;;;8.93;6.50;;;22.30;87.10;;;;;;6243829;23;20000;-83
2022/06/01 03:14:37;;;;;;;9.02;6.38;;;22.30;87.10;;;;;;6244873;23;20004;-82
2022/06/01 03:17:05;;;;;;;7.22;6.15;;;22.30;87.20;;;;;;6217986;23;20481;-81
2022/06/01 03:19:31;;;;;;;8.88;6.70;;;22.30;87.30;;;;;;6245064;23;20449;-82
2022/06/01 03:21:56;;;;;;;8.85;6.40;;;22.30;87.30;;;;;;6243863;23;20000;-81
2022/06/01 03:24:22;;;;;;;8.50;6.22;;;22.30;87.60;;;;;;6244598;23;20039;-81
2022/06/01 03:26:48;;;;;;;9.43;6.82;;;22.30;87.50;;;;;;6244235;23;20007;-81
2022/06/01 03:29:14;;;;;;;8.43;6.60;;;22.30;87.60;;;;;;6244956;23;20000;-81
2022/06/01 03:31:41;;;;;;;9.77;6.75;;;22.30;87.70;;;;;;6244188;23;20012;-81
2022/06/01 03:34:07;;;;;;;9.32;6.80;;;22.30;87.60;;;;;;6245151;23;20000;-82
2022/06/01 03:36:32;;;;;;;7.57;6.78;;;22.30;87.60;;;;;;6244972;23;20035;-82
2022/06/01 03:38:58;;;;;;;7.53;6.55;;;22.40;87.80;;;;;;6245280;23;19996;-82
2022/06/01 03:41:27;;;;;;;7.85;6.22;;;22.30;87.80;;;;;;6243985;23;20019;-82
2022/06/01 03:46:38;;;;;;;9.98;7.07;;;22.30;88.00;;;;;;6244757;23;20779;-80
2022/06/01 03:49:04;;;;;;;8.85;6.78;;;22.30;88.00;;;;;;6245152;23;20490;-80
2022/06/01 03:51:30;;;;;;;9.90;6.18;;;22.40;88.20;;;;;;6243955;23;20461;-80
2022/06/01 03:53:56;;;;;;;9.32;6.95;;;22.30;88.10;;;;;;6244604;23;19996;-80
2022/06/01 03:56:22;;;;;;;10.15;6.93;;;22.40;88.30;;;;;;6244019;23;20003;-79
2022/06/01 03:58:50;;;;;;;12.40;7.43;;;22.30;88.30;;;;;;6244704;23;19997;-85
2022/06/01 04:01:16;;;;;;;10.23;7.03;;;22.40;88.50;;;;;;6243880;23;20031;-85
2022/06/01 04:03:42;;;;;;;9.73;6.55;;;22.40;88.40;;;;;;6244699;23;20004;-86
2022/06/01 04:06:07;;;;;;;11.20;6.80;;;22.40;88.60;;;;;;6245687;23;20344;-84
2022/06/01 04:08:33;;;;;;;8.85;6.93;;;22.40;88.70;;;;;;6245231;23;20411;-87
2022/06/01 04:10:59;;;;;;;10.95;6.70;;;22.40;88.70;;;;;;6244871;23;20338;-87
2022/06/01 04:13:26;;;;;;;8.05;6.35;;;22.40;88.70;;;;;;6245840;23;20280;-86
2022/06/01 04:15:52;;;;;;;7.72;6.15;;;22.40;88.80;;;;;;6246901;23;20010;-84
2022/06/01 04:18:18;;;;;;;13.40;7.47;;;22.40;89.00;;;;;;6219378;23;20106;-83
2022/06/01 04:20:45;;;;;;;10.52;7.53;;;22.40;89.00;;;;;;6247043;23;20327;-85
2022/06/01 04:23:11;;;;;;;8.38;6.75;;;22.40;89.30;;;;;;6246302;23;20057;-84
2022/06/01 04:25:37;;;;;;;9.00;7.40;;;22.40;89.40;;;;;;6219618;23;20004;-84
2022/06/01 04:28:03;;;;;;;8.30;6.70;;;22.40;89.20;;;;;;6246353;23;20008;-85
2022/06/01 04:30:29;;;;;;;7.85;6.22;;;22.40;89.10;;;;;;6245397;23;20082;-85
2022/06/01 04:32:55;;;;;;;10.07;7.40;;;22.40;89.50;;;;;;6244395;23;20004;-86
2022/06/01 04:35:23;;;;;;;9.48;6.72;;;22.40;89.20;;;;;;6246434;23;20023;-86
2022/06/01 04:37:50;;;;;;;11.32;6.95;;;22.40;89.30;;;;;;6219630;23;20011;-87
2022/06/01 04:40:17;;;;;;;11.10;7.57;;;22.40;89.40;;;;;;6246697;23;20377;-84
2022/06/01 04:42:43;;;;;;;9.27;7.40;;;22.40;90.10;;;;;;6218495;23;20016;-84
2022/06/01 04:45:12;;;;;;;12.82;8.02;;;22.40;90.20;;;;;;6246281;23;20004;-86
2022/06/01 04:47:38;;;;;;;15.27;11.48;;;22.20;90.10;;;;;;6245819;23;20004;-86
2022/06/01 04:50:06;;;;;;;17.00;13.10;;;22.10;90.00;;;;;;6246826;23;20008;-87
2022/06/01 04:52:32;;;;;;;16.95;11.77;;;21.90;90.30;;;;;;6246265;23;19996;-87
2022/06/01 04:54:57;;;;;;;12.32;9.50;;;21.70;90.60;;;;;;6246681;23;20077;-89
2022/06/01 04:57:24;;;;;;;9.68;8.43;;;21.60;90.90;;;;;;6217998;23;20007;-77
2022/06/01 04:59:50;;;;;;;11.02;8.50;;;21.60;91.00;;;;;;6245920;23;20036;-79
2022/06/01 05:02:16;;;;;;;12.20;7.18;;;21.70;91.00;;;;;;6244536;23;20008;-78
2022/06/01 05:04:42;;;;;;;15.00;10.65;;;21.70;91.10;;;;;;6244827;23;20014;-78
2022/06/01 05:07:08;;;;;;;11.80;8.63;;;21.70;91.30;;;;;;6245527;23;20000;-78
2022/06/01 05:09:34;;;;;;;9.20;7.75;;;21.60;91.50;;;;;;6244648;23;20047;-77
2022/06/01 05:11:59;;;;;;;11.38;8.55;;;21.60;91.40;;;;;;6243855;23;20015;-75
2022/06/01 05:14:25;;;;;;;10.45;7.70;;;21.70;91.10;;;;;;6244536;23;20042;-77
2022/06/01 05:16:51;;;;;;;11.18;8.40;;;21.80;91.10;;;;;;6244098;23;20035;-77
2022/06/01 05:19:18;;;;;;;11.18;7.85;;;21.80;91.00;;;;;;6243966;23;20011;-77
2022/06/01 05:21:45;;;;;;;9.85;7.90;;;21.80;91.00;;;;;;6243275;23;20004;-79
2022/06/01 05:24:10;;;;;;;9.55;7.50;;;21.90;91.00;;;;;;6244496;23;20054;-79
2022/06/01 05:26:36;;;;;;;8.32;6.95;;;21.90;90.90;;;;;;6246095;23;20008;-78
2022/06/01 05:29:02;;;;;;;9.57;7.50;;;22.00;90.70;;;;;;6244511;23;20004;-79
2022/06/01 05:31:28;;;;;;;8.40;7.10;;;22.10;90.60;;;;;;6245539;23;20000;-78
2022/06/01 05:33:53;;;;;;;10.02;7.00;;;22.30;90.50;;;;;;6246189;23;20028;-78
2022/06/01 05:36:19;;;;;;;11.23;8.27;;;22.30;90.40;;;;;;6249564;23;19996;-77
2022/06/01 05:38:48;;;;;;;9.75;8.02;;;22.40;90.40;;;;;;6228582;23;20020;-76
2022/06/01 05:41:15;;;;;;;13.48;11.35;;;22.40;90.30;;;;;;6254173;23;20380;-77
2022/06/01 05:43:41;;;;;;;14.35;9.77;;;22.40;90.10;;;;;;6252266;23;20103;-78
2022/06/01 05:46:06;;;;;;;9.13;7.55;;;22.30;90.60;;;;;;6245673;23;20418;-81
2022/06/01 05:48:32;;;;;;;11.32;9.35;;;22.20;90.40;;;;;;6218573;23;20065;-81
2022/06/01 05:50:58;;;;;;;13.02;10.27;;;22.30;90.70;;;;;;6245852;23;20304;-81
2022/06/01 05:53:24;;;;;;;10.13;8.25;;;22.30;90.70;;;;;;6245765;23;19996;-81
2022/06/01 05:55:50;;;;;;;8.43;7.43;;;22.30;90.80;;;;;;6244463;23;20004;-80
2022/06/01 05:58:19;;;;;;;8.50;7.38;;;22.30;90.50;;;;;;6218929;23;20091;-77
2022/06/01 06:00:45;;;;;;;8.35;7.18;;;22.40;90.50;;;;;;6245975;23;20366;-77
2022/06/01 06:03:12;;;;;;;9.32;6.53;;;22.50;90.40;;;;;;6246053;23;20011;-78
2022/06/01 06:08:23;;;;;;;23.55;15.85;;;22.60;90.30;;;;;;6244920;23;20038;-81
2022/06/01 06:10:49;;;;;;;10.88;8.60;;;22.50;90.70;;;;;;6245692;23;20311;-80
2022/06/01 06:13:15;;;;;;;15.43;9.40;;;22.40;91.00;;;;;;6245026;23;19996;-80
2022/06/01 06:15:41;;;;;;;16.67;12.02;;;22.50;91.00;;;;;;6243442;23;20008;-80
2022/06/01 06:18:11;;;;;;;19.95;14.23;;;22.50;90.90;;;;;;6241829;23;20393;-79
2022/06/01 06:20:37;;;;;;;13.82;10.85;;;22.60;90.70;;;;;;6243074;23;20469;-80
2022/06/01 06:23:03;;;;;;;8.02;7.00;;;22.60;90.70;;;;;;6216877;23;20015;-80
2022/06/01 06:25:29;;;;;;;9.52;7.78;;;22.70;90.50;;;;;;6242612;23;20008;-80
2022/06/01 06:27:55;;;;;;;9.05;7.05;;;22.80;90.30;;;;;;6238666;23;20419;-79
2022/06/01 06:30:20;;;;;;;13.93;10.00;;;22.90;90.10;;;;;;6210839;23;20008;-79
2022/06/01 06:32:46;;;;;;;10.00;7.75;;;23.00;89.50;;;;;;6243776;23;20431;-80
2022/06/01 06:35:12;;;;;;;16.45;10.30;;;23.00;89.30;;;;;;6242064;23;20295;-79
2022/06/01 06:37:38;;;;;;;9.65;7.82;;;23.10;88.90;;;;;;6243118;23;20111;-79
2022/06/01 06:40:05;;;;;;;9.98;8.63;;;23.10;88.60;;;;;;6218545;23;20312;-79
2022/06/01 06:42:31;;;;;;;9.38;7.63;;;23.10;88.40;;;;;;6217945;23;20012;-79
2022/06/01 06:44:57;;;;;;;10.63;8.45;;;23.20;88.20;;;;;;6215689;23;20011;-78
2022/06/01 06:47:22;;;;;;;11.07;7.55;;;23.30;87.90;;;;;;6244292;23;20004;-79
2022/06/01 06:49:48;;;;;;;9.98;7.03;;;23.30;87.60;;;;;;6217683;23;20009;-78
2022/06/01 06:52:14;;;;;;;16.58;9.20;;;23.40;87.70;;;;;;6245697;23;20001;-79
2022/06/01 06:54:40;;;;;;;8.75;7.20;;;23.40;87.70;;;;;;6245693;23;19999;-79
2022/06/01 06:57:06;;;;;;;21.65;16.77;;;23.40;87.30;;;;;;6244557;23;20342;-79
2022/06/01 06:59:32;;;;;;;13.63;7.38;;;23.40;87.70;;;;;;6218025;23;20007;-79
2022/06/01 07:01:58;;;;;;;11.93;9.48;;;23.40;87.20;;;;;;6245239;23;20008;-79
2022/06/01 07:04:24;;;;;;;11.02;8.48;;;23.50;87.10;;;;;;6244010;23;20000;-78
2022/06/01 07:06:49;;;;;;;12.57;9.77;;;23.50;86.90;;;;;;6244567;23;20000;-78
2022/06/01 07:09:15;;;;;;;19.20;12.25;;;23.50;86.50;;;;;;6244730;23;20012;-78
2022/06/01 07:11:41;;;;;;;13.57;9.90;;;23.50;86.10;;;;;;6211201;23;20004;-78
2022/06/01 07:14:07;;;;;;;11.93;10.63;;;23.60;86.20;;;;;;6243239;23;20004;-80
2022/06/01 07:16:34;;;;;;;10.13;8.73;;;23.60;86.10;;;;;;6242766;23;20000;-80
2022/06/01 07:19:02;;;;;;;13.15;8.43;;;23.80;86.20;;;;;;6243332;23;20003;-80
2022/06/01 07:21:29;;;;;;;13.50;9.43;;;23.80;85.90;;;;;;6243635;23;20488;-81
2022/06/01 07:23:55;;;;;;;14.10;10.60;;;23.90;85.10;;;;;;6243525;23;20011;-81
2022/06/01 07:26:25;;;;;;;13.10;9.55;;;23.90;85.10;;;;;;6244099;23;20366;-81
2022/06/01 07:28:51;;;;;;;;;;;23.90;85.00;;;;;;6244823;23;20019;-81
2022/06/01 07:31:17;;;;;;;9.68;7.18;;;23.90;85.20;;;;;;6245038;23;19903;-81
2022/06/01 07:33:44;;;;;;;7.68;6.65;;;23.90;84.90;;;;;;6243795;23;20123;-80
2022/06/01 07:36:12;;;;;;;8.30;6.22;;;24.00;85.00;;;;;;6216197;23;20008;-80
2022/06/01 07:44:24;;;;;;;8.63;6.20;;;24.30;84.40;;;;;;6244720;23;20066;-79
2022/06/01 07:46:50;;;;;;;8.20;5.97;;;24.40;84.20;;;;;;6242991;23;20004;-78
2022/06/01 07:49:16;;;;;;;80.40;72.13;;;24.40;83.50;;;;;;6245635;23;20367;-79
2022/06/01 07:51:42;;;;;;;129.63;116.45;;;24.40;83.50;;;;;;6246591;23;20477;-81
2022/06/01 07:54:08;;;;;;;51.92;46.40;;;24.50;83.40;;;;;;6245761;23;19996;-81
2022/06/01 07:56:35;;;;;;;19.00;16.25;;;24.50;83.00;;;;;;6217645;23;20304;-81
2022/06/01 07:59:01;;;;;;;14.05;8.68;;;24.50;82.70;;;;;;6245136;23;20004;-81
2022/06/01 08:01:27;;;;;;;9.77;6.72;;;24.60;82.50;;;;;;6246334;23;20004;-81
2022/06/01 08:03:56;;;;;;;8.27;5.53;;;24.60;82.30;;;;;;6245916;23;20078;-81
2022/06/01 08:06:26;;;;;;;7.35;5.25;;;24.60;82.00;;;;;;6244245;23;20007;-81
2022/06/01 08:08:52;;;;;;;8.32;5.35;;;24.70;81.90;;;;;;6245766;23;20322;-81
2022/06/01 08:11:18;;;;;;;6.93;4.55;;;24.70;81.60;;;;;;6245759;23;20008;-81
2022/06/01 08:13:44;;;;;;;6.65;4.50;;;24.80;81.70;;;;;;6246079;23;20108;-81
2022/06/01 08:16:10;;;;;;;5.60;4.25;;;24.90;81.40;;;;;;6245348;23;19996;-81
2022/06/01 08:18:36;;;;;;;7.25;5.40;;;24.90;81.30;;;;;;6245093;23;20308;-81
2022/06/01 08:21:02;;;;;;;6.18;4.10;;;25.10;81.30;;;;;;6218960;23;20004;-81
2022/06/01 08:23:31;;;;;;;7.97;4.43;;;25.10;80.70;;;;;;6245515;23;20515;-81
2022/06/01 08:25:57;;;;;;;7.13;4.50;;;25.10;80.50;;;;;;6244275;23;20000;-81
2022/06/01 08:28:24;;;;;;;11.10;5.25;;;25.20;79.90;;;;;;6245400;23;20008;-81
2022/06/01 08:30:51;;;;;;;5.78;4.30;;;25.20;79.60;;;;;;6245753;23;20008;-81
2022/06/01 08:33:18;;;;;;;7.70;4.13;;;25.20;79.40;;;;;;6218333;23;20011;-81
2022/06/01 08:35:51;;;;;;;8.07;3.95;;;25.20;79.40;;;;;;6245078;23;20000;-81
2022/06/01 08:38:18;;;;;;;10.65;4.18;;;25.30;79.60;;;;;;6245756;23;20026;-81
2022/06/01 08:40:48;;;;;;;8.38;3.25;;;25.30;79.90;;;;;;6243938;23;20127;-81
2022/06/01 08:43:20;;;;;;;7.35;3.47;;;25.30;79.90;;;;;;6244855;23;20004;-78
2022/06/01 08:45:51;;;;;;;6.03;4.05;;;25.40;79.80;;;;;;6244437;23;20083;-80
2022/06/01 08:48:22;;;;;;;8.30;4.10;;;25.50;79.50;;;;;;6244994;23;20080;-80
2022/06/01 08:50:49;;;;;;;8.98;4.05;;;25.60;79.40;;;;;;6245939;23;20012;-82
2022/06/01 08:53:14;;;;;;;5.28;3.35;;;25.70;79.10;;;;;;6246100;23;20071;-82
2022/06/01 08:55:47;;;;;;;8.68;4.13;;;25.70;79.10;;;;;;6245295;23;20031;-81
2022/06/01 08:58:18;;;;;;;6.07;3.95;;;25.80;79.30;;;;;;6245965;23;20533;-80
2022/06/01 09:00:58;;;;;;;8.88;3.80;;;26.00;78.40;;;;;;6246093;23;20007;-80
2022/06/01 09:03:35;;;;;;;5.55;3.38;;;26.10;78.90;;;;;;6244709;23;20008;-80
2022/06/01 09:06:06;;;;;;;7.90;4.53;;;26.10;78.80;;;;;;6245139;23;20131;-80
2022/06/01 09:09:12;;;;;;;5.00;4.40;;;26.20;78.50;;;;;;6246002;23;20000;-81
2022/06/01 09:11:38;;;;;;;6.85;4.50;;;26.20;77.30;;;;;;6243971;23;20015;-80
2022/06/01 09:14:18;;;;;;;7.45;3.90;;;26.30;77.80;;;;;;6246074;23;20071;-80
2022/06/01 09:16:50;;;;;;;11.13;5.32;;;26.30;77.30;;;;;;6246121;23;20356;-81
2022/06/01 09:19:26;;;;;;;8.63;4.60;;;26.30;75.30;;;;;;6245430;23;20004;-79
2022/06/01 09:24:48;;;;;;;5.10;3.53;;;26.20;75.70;;;;;;6246345;23;20061;-81
2022/06/01 09:27:16;;;;;;;5.97;3.33;;;26.20;75.80;;;;;;6246632;23;20000;-81
2022/06/01 09:29:50;;;;;;;6.10;3.20;;;26.30;76.20;;;;;;6218569;23;20011;-80
2022/06/01 09:32:31;;;;;;;6.43;3.03;;;26.40;76.40;;;;;;6246748;23;20000;-81
2022/06/01 09:35:10;;;;;;;5.03;2.83;;;26.50;75.80;;;;;;6247017;23;20047;-81
2022/06/01 09:37:41;;;;;;;4.85;3.05;;;26.50;75.80;;;;;;6246047;23;19997;-78
2022/06/01 09:40:42;;;;;;;7.32;3.95;;;26.60;76.20;;;;;;6244773;23;19996;-78
2022/06/01 09:43:25;;;;;;;10.57;3.60;;;26.60;75.30;;;;;;6093466;23;20060;-78
2022/06/01 09:45:53;;;;;;;6.20;3.45;;;26.60;75.70;;;;;;6231353;23;20019;-81
2022/06/01 09:48:37;;;;;;;4.53;2.97;;;26.60;75.60;;;;;;6245436;23;20083;-81
2022/06/01 09:51:18;;;;;;;5.43;2.75;;;26.60;75.40;;;;;;6245543;23;20303;-78
2022/06/01 09:53:50;;;;;;;6.55;3.50;;;26.60;75.30;;;;;;6246047;23;20477;-79
2022/06/01 09:56:31;;;;;;;9.50;3.60;;;26.60;75.10;;;;;;6246343;23;20075;-78
2022/06/01 10:07:41;;;;;;;5.88;3.22;;;26.70;74.20;;;;;;6245093;23;20538;-79
2022/06/01 10:10:23;;;;;;;6.88;3.15;;;26.80;73.50;;;;;;6237507;23;20016;-79
2022/06/01 10:12:58;;;;;;;6.82;3.42;;;26.80;73.20;;;;;;6244990;23;20007;-79
2022/06/01 10:15:51;;;;;;;6.97;3.38;;;26.80;73.20;;;;;;6244395;23;20075;-79
2022/06/01 10:18:30;;;;;;;4.93;2.90;;;26.80;73.10;;;;;;6238993;23;20346;-79
2022/06/01 10:21:12;;;;;;;5.10;2.70;;;26.80;73.10;;;;;;6245368;23;20000;-79
2022/06/01 10:23:43;;;;;;;6.82;2.80;;;27.00;73.00;;;;;;6244979;23;20000;-79
2022/06/01 10:26:23;;;;;;;6.25;2.85;;;27.10;73.00;;;;;;6244854;23;20010;-82
2022/06/01 10:29:11;;;;;;;7.40;2.88;;;27.20;73.20;;;;;;6245052;23;20000;-78
2022/06/01 10:31:45;;;;;;;5.38;2.97;;;27.40;72.80;;;;;;6217509;23;20311;-78
2022/06/01 10:34:15;;;;;;;5.28;2.75;;;27.50;72.40;;;;;;6244999;23;20062;-78
2022/06/01 10:36:56;;;;;;;5.57;2.25;;;27.70;71.20;;;;;;6245076;23;20135;-79
2022/06/01 10:39:31;;;;;;;5.97;2.90;;;27.80;70.50;;;;;;6244894;23;20083;-78
2022/06/01 10:42:09;;;;;;;7.70;2.50;;;27.80;69.70;;;;;;6245307;23;20015;-79
2022/06/01 10:44:44;;;;;;;8.52;3.72;;;27.90;70.50;;;;;;6244401;23;20008;-78
2022/06/01 10:47:37;;;;;;;5.18;2.75;;;27.90;66.40;;;;;;6245491;23;19996;-79
2022/06/01 10:50:14;;;;;;;4.75;2.60;;;27.90;67.40;;;;;;6245496;23;20008;-79
2022/06/01 10:52:50;;;;;;;5.82;2.45;;;28.00;67.10;;;;;;6245091;23;20054;-79
2022/06/01 10:55:34;;;;;;;6.65;3.08;;;28.10;68.00;;;;;;6218114;23;20304;-78
2022/06/01 10:58:01;;;;;;;4.43;2.47;;;28.30;66.30;;;;;;6245019;23;20000;-78
2022/06/01 11:00:37;;;;;;;4.10;2.30;;;28.30;66.20;;;;;;6244927;23;20439;-78
2022/06/01 11:03:33;;;;;;;4.93;2.60;;;28.40;66.40;;;;;;6244740;23;20007;-78
2022/06/01 11:06:17;;;;;;;6.75;2.75;;;28.50;66.20;;;;;;6237833;23;20000;-79
2022/06/01 11:09:01;;;;;;;7.07;3.15;;;28.80;65.70;;;;;;6243415;23;20450;-79
2022/06/01 11:11:51;;;;;;;5.07;2.47;;;29.00;65.10;;;;;;6216547;23;20019;-79
2022/06/01 11:14:35;;;;;;;7.18;2.58;;;29.20;65.50;;;;;;6243721;23;20004;-80
2022/06/01 11:17:09;;;;;;;8.82;2.75;;;29.40;64.90;;;;;;6217784;23;20450;-80
2022/06/01 11:20:05;;;;;;;4.80;2.38;;;29.50;64.50;;;;;;6243905;23;20004;-80
2022/06/01 11:23:02;;;;;;;3.92;2.40;;;29.60;64.30;;;;;;6245254;23;20000;-80
2022/06/01 11:25:53;;;;;;;5.65;2.35;;;29.60;64.00;;;;;;6247558;23;20031;-80
2022/06/01 11:28:44;;;;;;;4.95;2.33;;;29.40;63.50;;;;;;6243620;23;20318;-80
2022/06/01 11:31:26;;;;;;;6.57;2.70;;;29.40;64.60;;;;;;6245593;23;20000;-80
2022/06/01 11:34:09;;;;;;;3.83;2.50;;;29.80;64.60;;;;;;6246674;23;20024;-80
2022/06/01 11:36:47;;;;;;;5.32;2.75;;;30.30;63.80;;;;;;6247397;23;20009;-80
2022/06/01 11:39:22;;;;;;;4.10;2.33;;;30.70;63.00;;;;;;6246066;23;19996;-80
2022/06/01 11:41:58;;;;;;;4.53;2.65;;;31.20;61.20;;;;;;6246981;23;20012;-79
2022/06/01 11:44:34;;;;;;;2.92;1.83;;;31.50;56.00;;;;;;6246381;23;20000;-80
2022/06/01 11:47:04;;;;;;;5.50;2.08;;;31.70;58.50;;;;;;6245985;23;20079;-80
2022/06/01 11:49:36;;;;;;;4.93;2.17;;;31.80;58.00;;;;;;6246901;23;20097;-79
2022/06/01 11:52:23;;;;;;;4.53;2.05;;;32.10;58.00;;;;;;6246216;23;20004;-79
2022/06/01 11:55:19;;;;;;;7.47;2.85;;;32.20;55.70;;;;;;6246458;23;20007;-79
2022/06/01 11:57:45;;;;;;;3.20;1.95;;;32.40;56.30;;;;;;6244753;23;19996;-79
2022/06/01 12:00:54;;;;;;;5.32;2.40;;;32.60;57.10;;;;;;6245864;23;20015;-80
2022/06/01 12:03:19;;;;;;;5.90;3.17;;;32.80;55.20;;;;;;6199838;23;20035;-78
2022/06/01 12:06:06;;;;;;;6.97;3.20;;;32.90;55.70;;;;;;6245710;23;20219;-79
2022/06/01 12:08:40;;;;;;;5.45;2.95;;;32.80;53.80;;;;;;6182271;23;20724;-79
2022/06/01 12:11:11;;;;;;;6.25;3.35;;;32.80;55.70;;;;;;6214554;23;20111;-79
2022/06/01 12:13:38;;;;;;;5.70;3.50;;;32.90;55.50;;;;;;6239230;23;20330;-79
2022/06/01 12:16:04;;;;;;;6.75;3.92;;;33.10;54.70;;;;;;6213341;23;20014;-79
2022/06/01 12:18:35;;;;;;;7.85;3.53;;;33.30;53.80;;;;;;6240532;23;20377;-79
2022/06/01 12:21:38;;;;;;;6.82;3.30;;;33.30;54.30;;;;;;6241156;23;20008;-79
2022/06/01 12:30:13;;;;;;;6.32;2.70;;;32.80;53.10;;;;;;6239607;23;20051;-78
2022/06/01 12:33:12;;;;;;;3.67;2.35;;;32.70;52.00;;;;;;6240807;23;20011;-79
2022/06/01 12:35:55;;;;;;;4.97;3.08;;;32.80;52.20;;;;;;6134193;23;20494;-80
2022/06/01 12:38:31;;;;;;;5.03;2.65;;;32.90;51.90;;;;;;6242435;23;20008;-80
2022/06/01 12:41:21;;;;;;;7.40;2.92;;;33.00;52.70;;;;;;6215580;23;20032;-80
2022/06/01 12:43:52;;;;;;;6.72;3.33;;;33.10;51.40;;;;;;6242147;23;20430;-79
2022/06/01 12:46:30;;;;;;;7.20;3.50;;;33.10;51.10;;;;;;6242141;23;20024;-80
2022/06/01 12:49:36;;;;;;;7.00;3.15;;;33.00;51.70;;;;;;6243396;23;20054;-80
2022/06/01 12:52:09;;;;;;;6.63;2.70;;;32.90;51.00;;;;;;6240039;23;20012;-79
2022/06/01 12:54:41;;;;;;;8.35;3.50;;;32.90;52.10;;;;;;6240295;23;20036;-80
2022/06/01 12:57:21;;;;;;;11.07;3.30;;;32.90;51.70;;;;;;6241312;23;20083;-82
2022/06/01 12:59:56;;;;;;;5.63;2.85;;;33.00;51.50;;;;;;6243310;23;20323;-79
2022/06/01 13:02:22;;;;;;;7.50;2.80;;;33.10;52.70;;;;;;6243485;23;20403;-79
2022/06/01 13:04:53;;;;;;;5.03;2.60;;;33.30;52.50;;;;;;6243486;23;20419;-79
2022/06/01 13:07:20;;;;;;;7.65;2.88;;;33.30;49.70;;;;;;6216928;23;20075;-77
2022/06/01 13:09:58;;;;;;;6.38;2.50;;;33.30;50.20;;;;;;6240771;23;20372;-78
2022/06/01 13:12:29;;;;;;;7.13;2.63;;;33.30;50.20;;;;;;6243358;23;20043;-78
2022/06/01 13:15:07;;;;;;;5.68;2.70;;;33.30;51.60;;;;;;6243180;23;20474;-78
2022/06/01 13:17:33;;;;;;;5.25;2.63;;;33.30;50.30;;;;;;6240066;23;20006;-78
2022/06/01 13:20:04;;;;;;;7.65;2.92;;;33.20;50.80;;;;;;6218866;23;20004;-78
2022/06/01 13:22:42;;;;;;;6.85;2.90;;;33.10;51.50;;;;;;6216757;23;20461;-81
2022/06/01 13:25:14;;;;;;;5.07;2.70;;;33.10;51.90;;;;;;6217638;23;20008;-77
2022/06/01 13:27:43;;;;;;;7.50;3.08;;;33.10;52.30;;;;;;6244951;23;20008;-80
2022/06/01 13:30:11;;;;;;;5.95;3.17;;;33.00;52.10;;;;;;6217184;23;20008;-79
2022/06/01 13:32:43;;;;;;;6.65;3.35;;;32.90;52.60;;;;;;6244351;23;20344;-78
2022/06/01 13:35:25;;;;;;;8.27;3.35;;;32.90;53.10;;;;;;6244386;23;20415;-78
2022/06/01 13:38:09;;;;;;;5.90;3.10;;;32.90;52.10;;;;;;6243261;23;20023;-79
2022/06/01 13:40:51;;;;;;;5.15;2.90;;;32.80;52.90;;;;;;6214387;23;20331;-78